sensor_id;sensor_type;location;lat;lon;timestamp;pressure;altitude;pressure_sealevel;temperature;humidity
29163;BME280;20331;53.144;8.208;2023-04-27T00:08:20;102140.47;;;5.76;75.41
29163;BME280;20331;53.144;8.208;2023-04-27T00:18:42;102144.66;;;5.71;76.70
29163;BME280;20331;53.144;8.208;2023-04-27T00:29:03;102149.78;;;5.70;76.98
29163;BME280;20331;53.144;8.208;2023-04-27T00:39:24;102160.03;;;5.64;75.83
29163;BME280;20331;53.144;8.208;2023-04-27T00:49:46;102165.06;;;5.55;75.67
29163;BME280;20331;53.144;8.208;2023-04-27T01:00:09;102174.25;;;5.38;75.50
29163;BME280;20331;53.144;8.208;2023-04-27T01:10:31;102185.16;;;5.22;76.22
29163;BME280;20331;53.144;8.208;2023-04-27T01:20:52;102202.13;;;5.13;77.52
29163;BME280;20331;53.144;8.208;2023-04-27T01:31:14;102193.50;;;5.08;77.34
29163;BME280;20331;53.144;8.208;2023-04-27T01:41:36;102196.00;;;5.04;77.32
29163;BME280;20331;53.144;8.208;2023-04-27T01:51:57;102190.72;;;4.95;77.76
29163;BME280;20331;53.144;8.208;2023-04-27T02:02:19;102202.00;;;5.04;78.50
29163;BME280;20331;53.144;8.208;2023-04-27T02:12:41;102202.75;;;4.99;77.80
29163;BME280;20331;53.144;8.208;2023-04-27T02:23:02;102201.69;;;4.83;77.72
29163;BME280;20331;53.144;8.208;2023-04-27T02:33:23;102203.38;;;4.83;78.55
29163;BME280;20331;53.144;8.208;2023-04-27T02:43:45;102206.75;;;4.82;80.05
29163;BME280;20331;53.144;8.208;2023-04-27T02:54:07;102211.78;;;4.74;79.08
29163;BME280;20331;53.144;8.208;2023-04-27T03:04:29;102214.25;;;4.68;79.91
29163;BME280;20331;53.144;8.208;2023-04-27T03:14:50;102218.38;;;4.60;78.76
29163;BME280;20331;53.144;8.208;2023-04-27T03:25:12;102215.03;;;4.64;79.82
29163;BME280;20331;53.144;8.208;2023-04-27T03:35:33;102216.59;;;4.56;80.68
29163;BME280;20331;53.144;8.208;2023-04-27T03:45:55;102211.53;;;4.59;80.47
29163;BME280;20331;53.144;8.208;2023-04-27T03:56:16;102210.59;;;4.54;79.65
29163;BME280;20331;53.144;8.208;2023-04-27T04:06:38;102218.25;;;4.53;79.69
29163;BME280;20331;53.144;8.208;2023-04-27T04:16:59;102211.34;;;4.49;79.74
29163;BME280;20331;53.144;8.208;2023-04-27T04:27:20;102214.88;;;4.55;80.04
29163;BME280;20331;53.144;8.208;2023-04-27T04:37:42;102223.34;;;4.51;80.59
29163;BME280;20331;53.144;8.208;2023-04-27T04:48:03;102213.09;;;4.51;81.36
29163;BME280;20331;53.144;8.208;2023-04-27T04:58:25;102225.19;;;4.58;81.13
29163;BME280;20331;53.144;8.208;2023-04-27T05:08:46;102233.94;;;4.71;81.06
29163;BME280;20331;53.144;8.208;2023-04-27T05:19:08;102239.19;;;4.80;79.68
29163;BME280;20331;53.144;8.208;2023-04-27T05:29:29;102236.88;;;4.93;81.59
29163;BME280;20331;53.144;8.208;2023-04-27T05:39:51;102245.84;;;5.20;79.44
29163;BME280;20331;53.144;8.208;2023-04-27T05:50:12;102253.03;;;5.45;79.75
29163;BME280;20331;53.144;8.208;2023-04-27T06:00:34;102252.63;;;5.79;77.82
29163;BME280;20331;53.144;8.208;2023-04-27T06:10:57;102260.72;;;6.09;76.91
29163;BME280;20331;53.144;8.208;2023-04-27T06:21:18;102262.78;;;6.40;75.39
29163;BME280;20331;53.144;8.208;2023-04-27T06:31:39;102267.31;;;6.65;74.93
29163;BME280;20331;53.144;8.208;2023-04-27T06:42:01;102265.84;;;6.94;75.27
29163;BME280;20331;53.144;8.208;2023-04-27T06:52:24;102264.41;;;7.33;73.47
29163;BME280;20331;53.144;8.208;2023-04-27T07:02:45;102250.00;;;7.66;71.91
29163;BME280;20331;53.144;8.208;2023-04-27T07:13:07;102246.66;;;7.91;71.53
29163;BME280;20331;53.144;8.208;2023-04-27T07:23:30;102256.19;;;8.12;69.41
29163;BME280;20331;53.144;8.208;2023-04-27T07:33:51;102258.84;;;8.29;68.11
29163;BME280;20331;53.144;8.208;2023-04-27T07:44:13;102253.72;;;8.45;67.05
29163;BME280;20331;53.144;8.208;2023-04-27T07:54:35;102255.47;;;8.60;64.87
29163;BME280;20331;53.144;8.208;2023-04-27T08:04:56;102241.72;;;8.65;66.97
29163;BME280;20331;53.144;8.208;2023-04-27T08:15:19;102223.63;;;8.86;67.13
29163;BME280;20331;53.144;8.208;2023-04-27T08:25:40;102228.81;;;8.98;67.17
29163;BME280;20331;53.144;8.208;2023-04-27T08:36:01;102229.63;;;9.34;65.93
29163;BME280;20331;53.144;8.208;2023-04-27T08:46:23;102230.28;;;9.87;60.87
29163;BME280;20331;53.144;8.208;2023-04-27T08:56:47;102244.03;;;9.98;63.86
29163;BME280;20331;53.144;8.208;2023-04-27T09:07:12;102246.56;;;10.07;62.58
29163;BME280;20331;53.144;8.208;2023-04-27T09:17:34;102248.28;;;10.11;62.65
29163;BME280;20331;53.144;8.208;2023-04-27T09:27:59;102250.88;;;10.05;62.80
29163;BME280;20331;53.144;8.208;2023-04-27T09:38:21;102250.88;;;10.05;59.22
29163;BME280;20331;53.144;8.208;2023-04-27T09:48:43;102248.28;;;10.09;61.56
29163;BME280;20331;53.144;8.208;2023-04-27T09:59:09;102241.19;;;10.40;60.63
29163;BME280;20331;53.144;8.208;2023-04-27T10:20:07;102237.25;;;11.03;58.44
29163;BME280;20331;53.144;8.208;2023-04-27T10:30:33;102219.56;;;11.43;56.70
29163;BME280;20331;53.144;8.208;2023-04-27T10:41:01;102209.44;;;11.96;56.27
29163;BME280;20331;53.144;8.208;2023-04-27T10:51:23;102212.53;;;12.22;55.89
29163;BME280;20331;53.144;8.208;2023-04-27T11:01:47;102212.09;;;12.49;55.09
29163;BME280;20331;53.144;8.208;2023-04-27T11:12:11;102189.19;;;12.21;54.34
29163;BME280;20331;53.144;8.208;2023-04-27T11:22:33;102180.38;;;12.82;56.56
29163;BME280;20331;53.144;8.208;2023-04-27T11:32:54;102175.84;;;12.93;56.34
29163;BME280;20331;53.144;8.208;2023-04-27T11:43:16;102182.63;;;13.05;54.32
29163;BME280;20331;53.144;8.208;2023-04-27T11:53:38;102181.47;;;12.71;51.70
29163;BME280;20331;53.144;8.208;2023-04-27T12:04:00;102181.66;;;12.59;55.86
29163;BME280;20331;53.144;8.208;2023-04-27T12:14:23;102194.44;;;12.72;54.52
29163;BME280;20331;53.144;8.208;2023-04-27T12:24:45;102171.38;;;13.01;55.21
29163;BME280;20331;53.144;8.208;2023-04-27T12:35:06;102182.91;;;12.87;55.55
29163;BME280;20331;53.144;8.208;2023-04-27T12:45:28;102186.19;;;12.98;52.43
29163;BME280;20331;53.144;8.208;2023-04-27T12:55:50;102182.66;;;13.00;53.66
29163;BME280;20331;53.144;8.208;2023-04-27T13:06:11;102188.44;;;13.18;53.24
29163;BME280;20331;53.144;8.208;2023-04-27T13:16:32;102172.25;;;13.48;52.59
29163;BME280;20331;53.144;8.208;2023-04-27T13:26:54;102169.69;;;13.86;54.85
29163;BME280;20331;53.144;8.208;2023-04-27T13:37:16;102153.72;;;14.02;55.17
29163;BME280;20331;53.144;8.208;2023-04-27T13:47:40;102147.09;;;13.88;47.07
29163;BME280;20331;53.144;8.208;2023-04-27T13:58:02;102135.09;;;13.81;56.14
29163;BME280;20331;53.144;8.208;2023-04-27T14:08:24;102136.41;;;13.62;47.50
29163;BME280;20331;53.144;8.208;2023-04-27T14:18:45;102126.50;;;13.38;56.64
29163;BME280;20331;53.144;8.208;2023-04-27T14:29:07;102120.78;;;13.21;56.44
29163;BME280;20331;53.144;8.208;2023-04-27T14:39:28;102125.16;;;13.20;56.13
29163;BME280;20331;53.144;8.208;2023-04-27T14:49:50;102136.19;;;13.30;56.27
29163;BME280;20331;53.144;8.208;2023-04-27T15:00:11;102118.22;;;13.19;56.94
29163;BME280;20331;53.144;8.208;2023-04-27T15:10:34;102119.38;;;13.04;55.96
29163;BME280;20331;53.144;8.208;2023-04-27T15:20:56;102127.31;;;12.95;55.64
29163;BME280;20331;53.144;8.208;2023-04-27T15:31:18;102126.50;;;12.93;57.93
29163;BME280;20331;53.144;8.208;2023-04-27T15:41:39;102122.63;;;13.16;57.54
29163;BME280;20331;53.144;8.208;2023-04-27T15:52:01;102111.81;;;13.37;57.59
29163;BME280;20331;53.144;8.208;2023-04-27T16:02:22;102113.63;;;13.32;56.02
29163;BME280;20331;53.144;8.208;2023-04-27T16:12:44;102103.19;;;13.35;57.31
29163;BME280;20331;53.144;8.208;2023-04-27T16:23:05;102097.13;;;13.34;57.70
29163;BME280;20331;53.144;8.208;2023-04-27T16:33:27;102080.06;;;13.21;57.38
29163;BME280;20331;53.144;8.208;2023-04-27T16:43:48;102062.88;;;13.14;56.44
29163;BME280;20331;53.144;8.208;2023-04-27T16:54:10;102060.38;;;13.09;58.51
29163;BME280;20331;53.144;8.208;2023-04-27T17:04:32;102056.22;;;12.99;58.53
29163;BME280;20331;53.144;8.208;2023-04-27T17:15:00;102062.63;;;12.83;58.43
29163;BME280;20331;53.144;8.208;2023-04-27T17:25:21;102060.13;;;12.77;59.98
29163;BME280;20331;53.144;8.208;2023-04-27T17:35:43;102059.16;;;12.37;61.85
29163;BME280;20331;53.144;8.208;2023-04-27T17:46:05;102062.22;;;12.10;66.49
29163;BME280;20331;53.144;8.208;2023-04-27T17:56:27;102075.75;;;11.75;67.51
29163;BME280;20331;53.144;8.208;2023-04-27T18:06:48;102076.03;;;11.53;68.75
29163;BME280;20331;53.144;8.208;2023-04-27T18:17:10;102082.41;;;11.28;69.90
29163;BME280;20331;53.144;8.208;2023-04-27T18:27:31;102083.56;;;11.04;70.36
29163;BME280;20331;53.144;8.208;2023-04-27T18:37:53;102080.34;;;10.84;70.17
29163;BME280;20331;53.144;8.208;2023-04-27T18:48:14;102075.34;;;10.67;69.88
29163;BME280;20331;53.144;8.208;2023-04-27T18:58:35;102085.78;;;10.57;69.94
29163;BME280;20331;53.144;8.208;2023-04-27T19:08:57;102092.78;;;10.50;70.49
29163;BME280;20331;53.144;8.208;2023-04-27T19:19:18;102085.19;;;10.31;70.55
29163;BME280;20331;53.144;8.208;2023-04-27T19:29:50;102082.72;;;10.17;70.78
29163;BME280;20331;53.144;8.208;2023-04-27T19:40:12;102097.41;;;10.09;71.15
29163;BME280;20331;53.144;8.208;2023-04-27T19:50:33;102105.25;;;9.97;71.17
29163;BME280;20331;53.144;8.208;2023-04-27T20:00:58;102076.91;;;9.85;71.39
29163;BME280;20331;53.144;8.208;2023-04-27T20:11:20;102078.69;;;9.77;71.44
29163;BME280;20331;53.144;8.208;2023-04-27T20:21:41;102061.47;;;9.73;71.06
29163;BME280;20331;53.144;8.208;2023-04-27T20:32:03;102058.09;;;9.62;70.51
29163;BME280;20331;53.144;8.208;2023-04-27T20:42:25;102054.66;;;9.60;70.14
29163;BME280;20331;53.144;8.208;2023-04-27T20:52:46;102048.69;;;9.52;70.36
29163;BME280;20331;53.144;8.208;2023-04-27T21:03:07;102051.31;;;9.44;70.35
29163;BME280;20331;53.144;8.208;2023-04-27T21:13:29;102055.63;;;9.42;70.54
29163;BME280;20331;53.144;8.208;2023-04-27T21:23:50;102039.31;;;9.36;70.61
29163;BME280;20331;53.144;8.208;2023-04-27T21:34:27;102015.28;;;9.25;70.91
29163;BME280;20331;53.144;8.208;2023-04-27T21:44:49;102024.78;;;9.15;71.68
29163;BME280;20331;53.144;8.208;2023-04-27T21:55:10;102011.91;;;9.07;70.95
29163;BME280;20331;53.144;8.208;2023-04-27T22:05:32;101995.59;;;9.01;71.20
29163;BME280;20331;53.144;8.208;2023-04-27T22:15:53;101991.34;;;8.89;71.54
29163;BME280;20331;53.144;8.208;2023-04-27T22:26:15;101987.97;;;8.78;72.70
29163;BME280;20331;53.144;8.208;2023-04-27T22:36:36;101972.56;;;8.60;72.83
29163;BME280;20331;53.144;8.208;2023-04-27T22:46:58;101958.81;;;8.52;72.62
29163;BME280;20331;53.144;8.208;2023-04-27T22:57:22;101961.44;;;8.40;73.35
29163;BME280;20331;53.144;8.208;2023-04-27T23:07:43;101963.19;;;8.29;74.06
29163;BME280;20331;53.144;8.208;2023-04-27T23:18:06;101949.44;;;8.24;73.11
29163;BME280;20331;53.144;8.208;2023-04-27T23:28:27;101940.84;;;8.16;74.44
29163;BME280;20331;53.144;8.208;2023-04-27T23:38:49;101922.81;;;8.10;74.62
29163;BME280;20331;53.144;8.208;2023-04-27T23:49:11;101908.22;;;8.04;76.63
29163;BME280;20331;53.144;8.208;2023-04-27T23:59:33;101891.91;;;7.98;75.05
